createdAt,value
2019-02-26T00:01:18.537Z,2.37
2019-02-26T00:03:53.420Z,2.30
2019-02-26T00:06:23.375Z,2.19
2019-02-26T00:09:03.747Z,2.18
2019-02-26T00:11:41.838Z,2.17
2019-02-26T00:14:13.135Z,2.13
2019-02-26T00:16:42.429Z,2.17
2019-02-26T00:19:18.049Z,2.08
2019-02-26T00:21:47.921Z,2.05
2019-02-26T00:24:16.797Z,2.07
2019-02-26T00:26:58.603Z,2.07
2019-02-26T00:29:46.453Z,2.05
2019-02-26T00:32:25.764Z,1.99
2019-02-26T00:37:55.866Z,1.89
2019-02-26T00:40:24.127Z,1.89
2019-02-26T00:43:04.773Z,1.90
2019-02-26T00:45:34.024Z,1.84
2019-02-26T00:48:09.666Z,1.83
2019-02-26T00:53:59.741Z,1.92
2019-02-26T00:56:36.340Z,1.85
2019-02-26T00:59:14.612Z,1.84
2019-02-26T01:01:46.002Z,1.79
2019-02-26T01:04:19.529Z,1.72
2019-02-26T01:10:18.163Z,1.62
2019-02-26T01:12:52.357Z,1.56
2019-02-26T01:15:32.411Z,1.47
2019-02-26T01:18:01.457Z,1.40
2019-02-26T01:20:36.598Z,1.40
2019-02-26T01:26:36.996Z,1.38
2019-02-26T01:32:08.891Z,1.26
2019-02-26T01:34:47.827Z,1.26
2019-02-26T01:40:45.639Z,1.26
2019-02-26T01:43:19.031Z,1.32
2019-02-26T01:45:48.624Z,1.36
2019-02-26T01:48:27.150Z,1.29
2019-02-26T01:50:57.472Z,1.24
2019-02-26T01:53:32.719Z,1.16
2019-02-26T01:56:04.599Z,1.08
2019-02-26T01:59:19.009Z,1.12
2019-02-26T02:04:57.166Z,1.07
2019-02-26T02:07:25.967Z,0.88
2019-02-26T02:13:07.086Z,0.63
2019-02-26T02:15:44.423Z,0.54
2019-02-26T02:18:25.343Z,0.56
2019-02-26T02:21:00.401Z,0.50
2019-02-26T02:23:30.239Z,0.46
2019-02-26T02:26:07.113Z,0.45
2019-02-26T02:28:41.505Z,0.44
2019-02-26T02:31:52.155Z,0.50
2019-02-26T02:34:29.445Z,0.55
2019-02-26T02:40:04.961Z,0.64
2019-02-26T02:42:34.905Z,0.64
2019-02-26T02:45:17.048Z,0.49
2019-02-26T02:47:43.885Z,0.33
2019-02-26T02:50:15.337Z,0.25
2019-02-26T02:52:50.954Z,0.14
2019-02-26T02:55:25.326Z,0.07
2019-02-26T03:01:16.506Z,0.10
2019-02-26T03:03:56.444Z,0.09
2019-02-26T03:06:32.606Z,0.10
2019-02-26T03:09:43.196Z,0.09
2019-02-26T03:12:32.454Z,0.07
2019-02-26T03:15:02.465Z,0.05
2019-02-26T03:17:31.447Z,0.08
2019-02-26T03:20:19.175Z,0.04
2019-02-26T03:25:49.872Z,-0.03
2019-02-26T03:28:23.895Z,-0.09
2019-02-26T03:31:11.421Z,-0.08
2019-02-26T03:33:39.325Z,-0.09
2019-02-26T03:36:08.559Z,-0.21
2019-02-26T03:38:44.030Z,-0.29
2019-02-26T03:44:03.413Z,-0.40
2019-02-26T03:47:19.514Z,-0.40
2019-02-26T03:49:48.475Z,-0.37
2019-02-26T03:52:16.813Z,-0.35
2019-02-26T03:54:47.393Z,-0.35
2019-02-26T03:57:22.738Z,-0.36
2019-02-26T03:59:51.585Z,-0.42
2019-02-26T04:02:20.923Z,-0.40
2019-02-26T04:05:00.768Z,-0.37
2019-02-26T04:08:22.099Z,-0.34
2019-02-26T04:11:07.965Z,-0.19
2019-02-26T04:13:36.195Z,-0.35
2019-02-26T04:16:04.708Z,-0.42
2019-02-26T04:18:34.752Z,-0.51
2019-02-26T04:21:05.929Z,-0.57
2019-02-26T04:23:42.119Z,-0.62
2019-02-26T04:26:44.070Z,-0.59
2019-02-26T04:29:50.376Z,-0.62
2019-02-26T04:32:57.029Z,-0.60
2019-02-26T04:36:03.722Z,-0.60
2019-02-26T04:39:08.407Z,-0.57
2019-02-26T04:42:21.591Z,-0.62
2019-02-26T04:45:28.201Z,-0.67
2019-02-26T04:51:39.110Z,-0.58
2019-02-26T04:54:17.492Z,-0.60
2019-02-26T04:57:30.228Z,-0.59
2019-02-26T05:00:01.051Z,-0.56
2019-02-26T05:02:29.086Z,-0.59
2019-02-26T05:04:57.378Z,-0.59
2019-02-26T05:07:25.349Z,-0.56
2019-02-26T05:10:12.563Z,-0.52
2019-02-26T05:12:40.735Z,-0.50
2019-02-26T05:15:13.967Z,-0.55
2019-02-26T05:17:46.220Z,-0.55
2019-02-26T05:20:16.558Z,-0.61
2019-02-26T05:22:52.024Z,-0.62
2019-02-26T05:25:21.481Z,-0.66
2019-02-26T05:27:50.930Z,-0.67
2019-02-26T05:30:26.654Z,-0.69
2019-02-26T05:32:57.960Z,-0.73
2019-02-26T05:38:54.058Z,-0.79
2019-02-26T05:41:21.808Z,-0.87
2019-02-26T05:43:55.257Z,-0.96
2019-02-26T05:46:29.377Z,-1.00
2019-02-26T05:49:05.519Z,-0.99
2019-02-26T05:51:39.265Z,-1.01
2019-02-26T06:00:08.327Z,-1.05
2019-02-26T06:02:47.295Z,-1.04
2019-02-26T06:05:32.356Z,-1.09
2019-02-26T06:08:00.665Z,-1.13
2019-02-26T06:13:32.441Z,-1.19
2019-02-26T06:16:07.664Z,-1.23
2019-02-26T06:18:46.509Z,-1.23
2019-02-26T06:24:22.762Z,-1.20
2019-02-26T06:26:56.771Z,-1.13
2019-02-26T06:29:37.416Z,-1.04
2019-02-26T06:32:27.430Z,-0.93
2019-02-26T06:35:01.312Z,-0.82
2019-02-26T06:37:31.339Z,-0.76
2019-02-26T06:40:00.654Z,-0.66
2019-02-26T06:43:19.707Z,-0.60
2019-02-26T06:45:47.970Z,-0.56
2019-02-26T06:48:19.331Z,-0.49
2019-02-26T06:50:55.652Z,-0.48
2019-02-26T06:53:30.105Z,-0.44
2019-02-26T06:55:58.565Z,-0.41
2019-02-26T06:58:40.579Z,-0.39
2019-02-26T07:01:28.233Z,-0.42
2019-02-26T07:03:56.842Z,-0.43
2019-02-26T07:06:34.823Z,-0.45
2019-02-26T07:09:15.268Z,-0.49
2019-02-26T07:11:50.246Z,-0.51
2019-02-26T07:14:18.926Z,-0.45
2019-02-26T07:16:46.851Z,-0.37
2019-02-26T07:19:16.603Z,-0.29
2019-02-26T07:21:53.048Z,-0.21
2019-02-26T07:24:23.047Z,-0.01
2019-02-26T07:30:15.269Z,0.23
2019-02-26T07:32:45.523Z,0.42
2019-02-26T07:35:19.434Z,0.55
2019-02-26T07:37:47.721Z,0.66
2019-02-26T07:40:16.366Z,0.80
2019-02-26T07:45:54.747Z,1.06
2019-02-26T07:48:23.813Z,1.17
2019-02-26T07:50:58.670Z,1.47
2019-02-26T07:53:26.947Z,1.47
2019-02-26T07:55:56.870Z,1.58
2019-02-26T07:58:33.290Z,1.72
2019-02-26T08:01:08.816Z,1.80
2019-02-26T08:06:38.536Z,1.89
2019-02-26T08:09:16.478Z,1.91
2019-02-26T08:11:46.942Z,1.96
2019-02-26T08:15:05.673Z,2.00
2019-02-26T08:21:02.473Z,2.17
2019-02-26T08:23:36.958Z,2.29
2019-02-26T08:26:05.127Z,2.42
2019-02-26T08:28:33.796Z,2.55
2019-02-26T08:31:02.377Z,2.67
2019-02-26T08:33:30.648Z,2.85
2019-02-26T08:35:58.906Z,2.97
2019-02-26T08:38:30.037Z,3.12
2019-02-26T08:41:04.070Z,3.30
2019-02-26T08:44:12.700Z,3.52
2019-02-26T08:50:01.925Z,3.81
2019-02-26T08:52:41.019Z,3.97
2019-02-26T08:55:24.385Z,4.14
2019-02-26T09:00:49.816Z,4.52
2019-02-26T09:04:00.650Z,4.71
2019-02-26T09:06:38.744Z,4.91
2019-02-26T09:09:48.125Z,5.28
2019-02-26T09:12:24.722Z,5.54
2019-02-26T09:15:00.448Z,6.00
2019-02-26T09:17:30.477Z,6.49
2019-02-26T09:20:47.354Z,6.96
2019-02-26T09:29:19.522Z,8.96
2019-02-26T09:38:00.110Z,10.97
2019-02-26T09:40:26.644Z,11.73
2019-02-26T09:42:58.202Z,12.22
2019-02-26T09:49:10.504Z,13.68
2019-02-26T09:57:22.815Z,15.99
2019-02-26T09:59:58.186Z,16.37
2019-02-26T10:02:32.396Z,16.79
2019-02-26T10:05:00.283Z,16.98
2019-02-26T10:07:30.675Z,17.38
2019-02-26T10:10:06.518Z,17.40
2019-02-26T10:12:41.619Z,17.57
2019-02-26T10:15:22.142Z,17.74
2019-02-26T10:17:49.954Z,17.96
2019-02-26T10:20:58.971Z,17.59
2019-02-26T10:23:29.087Z,17.48
2019-02-26T10:26:44.215Z,17.32
2019-02-26T10:29:45.090Z,17.60
2019-02-26T10:35:33.307Z,18.22
2019-02-26T10:38:00.437Z,18.47
2019-02-26T10:46:32.122Z,19.58
2019-02-26T10:49:09.809Z,19.45
2019-02-26T10:51:42.402Z,19.17
2019-02-26T10:54:17.947Z,19.08
2019-02-26T10:56:45.138Z,19.05
2019-02-26T10:59:32.723Z,19.03
2019-02-26T11:02:03.054Z,19.25
2019-02-26T11:04:52.708Z,19.31
2019-02-26T11:10:43.977Z,20.19
2019-02-26T11:13:18.212Z,20.58
2019-02-26T11:16:05.319Z,20.62
2019-02-26T11:21:57.607Z,20.47
2019-02-26T11:24:33.496Z,19.73
2019-02-26T11:27:00.799Z,19.43
2019-02-26T11:35:39.651Z,19.07
2019-02-26T11:38:16.926Z,18.73
2019-02-26T11:44:07.545Z,17.84
2019-02-26T11:46:46.747Z,17.72
2019-02-26T11:49:37.016Z,17.64
2019-02-26T11:52:12.535Z,17.53
2019-02-26T11:57:45.158Z,17.63
2019-02-26T12:01:00.766Z,17.48
2019-02-26T12:03:32.760Z,17.60
2019-02-26T12:09:40.782Z,18.76
2019-02-26T12:12:16.144Z,18.76
2019-02-26T12:14:46.670Z,18.86
2019-02-26T12:21:05.384Z,18.82
2019-02-26T12:26:52.850Z,18.56
2019-02-26T12:29:34.772Z,18.23
2019-02-26T12:35:14.749Z,18.77
2019-02-26T12:38:22.980Z,19.09
2019-02-26T12:40:53.411Z,18.93
2019-02-26T12:43:30.154Z,18.83
2019-02-26T12:52:09.114Z,19.18
2019-02-26T12:55:17.327Z,19.22
2019-02-26T12:57:47.136Z,19.63
2019-02-26T13:03:19.836Z,20.88
2019-02-26T13:05:55.864Z,21.45
2019-02-26T13:08:24.386Z,21.85
2019-02-26T13:11:14.016Z,21.60
2019-02-26T13:17:08.608Z,21.33
2019-02-26T13:19:58.889Z,20.91
2019-02-26T13:22:35.394Z,21.06
2019-02-26T13:28:05.507Z,21.15
2019-02-26T13:33:37.462Z,20.77
2019-02-26T13:36:04.825Z,20.94
2019-02-26T13:38:44.707Z,21.47
2019-02-26T13:41:38.338Z,22.30
2019-02-26T13:44:32.932Z,21.92
2019-02-26T13:47:01.213Z,21.57
2019-02-26T13:50:09.801Z,20.78
2019-02-26T13:52:38.104Z,20.92
2019-02-26T13:55:46.896Z,21.42
2019-02-26T13:58:15.250Z,21.83
2019-02-26T14:01:23.835Z,21.35
2019-02-26T14:03:52.533Z,20.63
2019-02-26T14:07:01.202Z,20.36
2019-02-26T14:09:48.446Z,20.31
2019-02-26T14:13:05.008Z,20.40
2019-02-26T14:18:53.628Z,21.35
2019-02-26T14:22:01.867Z,21.96
2019-02-26T14:27:31.344Z,23.06
2019-02-26T14:33:42.065Z,22.06
2019-02-26T14:36:10.003Z,21.60
2019-02-26T14:38:38.485Z,21.83
2019-02-26T14:41:07.075Z,21.87
2019-02-26T14:43:35.922Z,21.78
2019-02-26T14:46:04.584Z,21.47
2019-02-26T14:51:34.961Z,21.56
2019-02-26T14:54:03.181Z,21.81
2019-02-26T14:56:31.830Z,21.79
2019-02-26T14:59:00.148Z,22.07
2019-02-26T15:01:28.613Z,22.64
2019-02-26T15:06:58.414Z,23.61
2019-02-26T15:09:27.169Z,24.12
2019-02-26T15:12:06.719Z,24.55
2019-02-26T15:15:06.874Z,24.02
2019-02-26T15:17:34.832Z,23.42
2019-02-26T15:20:03.424Z,22.80
2019-02-26T15:22:31.710Z,22.81
2019-02-26T15:25:00.332Z,22.76
2019-02-26T15:27:35.969Z,22.70
2019-02-26T15:30:46.038Z,22.64
2019-02-26T15:33:14.714Z,22.12
2019-02-26T15:36:02.001Z,22.34
2019-02-26T15:38:30.897Z,22.50
2019-02-26T15:41:39.185Z,22.25
2019-02-26T15:47:09.193Z,21.57
2019-02-26T15:49:44.540Z,21.20
2019-02-26T15:52:12.476Z,21.00
2019-02-26T15:54:40.322Z,21.15
2019-02-26T15:57:08.192Z,21.35
2019-02-26T15:59:36.540Z,21.21
2019-02-26T16:02:04.804Z,20.85
2019-02-26T16:04:33.340Z,20.63
2019-02-26T16:07:01.873Z,20.43
2019-02-26T16:09:30.528Z,20.20
2019-02-26T16:11:58.098Z,19.92
2019-02-26T16:14:26.365Z,19.67
2019-02-26T16:16:55.055Z,19.30
2019-02-26T16:19:23.906Z,18.35
2019-02-26T16:21:52.428Z,17.44
2019-02-26T16:24:21.137Z,16.51
2019-02-26T16:26:49.415Z,15.70
2019-02-26T16:29:18.798Z,14.91
2019-02-26T16:31:47.817Z,14.26
2019-02-26T16:34:17.483Z,13.54
2019-02-26T16:36:56.331Z,13.10
2019-02-26T16:43:06.561Z,12.38
2019-02-26T16:45:46.423Z,12.04
2019-02-26T16:50:54.089Z,11.36
2019-02-26T16:54:04.767Z,11.05
2019-02-26T16:56:42.808Z,10.72
2019-02-26T16:59:11.381Z,10.30
2019-02-26T17:01:41.569Z,10.00
2019-02-26T17:04:10.127Z,9.71
2019-02-26T17:06:38.479Z,9.41
2019-02-26T17:09:07.691Z,9.10
2019-02-26T17:11:35.954Z,8.84
2019-02-26T17:14:04.655Z,8.61
2019-02-26T17:16:32.636Z,8.39
2019-02-26T17:19:00.812Z,8.19
2019-02-26T17:21:30.674Z,8.00
2019-02-26T17:23:58.443Z,7.83
2019-02-26T17:26:26.364Z,7.68
2019-02-26T17:28:54.998Z,7.57
2019-02-26T17:31:22.541Z,7.47
2019-02-26T17:33:51.124Z,7.38
2019-02-26T17:36:19.808Z,7.26
2019-02-26T17:38:51.544Z,7.16
2019-02-26T17:41:17.944Z,7.06
2019-02-26T17:43:46.183Z,6.94
2019-02-26T17:46:14.652Z,6.84
2019-02-26T17:48:43.874Z,6.71
2019-02-26T17:51:12.528Z,6.62
2019-02-26T17:53:41.015Z,6.51
2019-02-26T17:56:09.378Z,6.42
2019-02-26T17:58:37.315Z,6.32
2019-02-26T18:01:06.109Z,6.25
2019-02-26T18:03:34.340Z,6.16
2019-02-26T18:06:02.999Z,6.07
2019-02-26T18:08:31.344Z,5.99
2019-02-26T18:10:59.314Z,5.90
2019-02-26T18:13:27.647Z,5.80
2019-02-26T18:15:56.973Z,5.71
2019-02-26T18:18:34.257Z,5.61
2019-02-26T18:21:11.094Z,5.51
2019-02-26T18:23:38.696Z,5.39
2019-02-26T18:26:07.069Z,5.31
2019-02-26T18:28:36.789Z,5.21
2019-02-26T18:31:05.691Z,5.16
2019-02-26T18:33:36.205Z,5.12
2019-02-26T18:36:11.356Z,5.06
2019-02-26T18:38:40.068Z,5.02
2019-02-26T18:44:10.358Z,4.90
2019-02-26T18:46:39.182Z,4.85
2019-02-26T18:49:07.424Z,4.90
2019-02-26T18:51:36.495Z,4.83
2019-02-26T18:54:05.189Z,4.83
2019-02-26T18:56:36.350Z,4.90
2019-02-26T18:59:10.279Z,4.89
2019-02-26T19:01:38.994Z,4.88
2019-02-26T19:04:07.164Z,4.83
2019-02-26T19:06:35.797Z,4.75
2019-02-26T19:12:25.559Z,4.78
2019-02-26T19:14:53.894Z,4.74
2019-02-26T19:17:21.937Z,4.63
2019-02-26T19:19:50.635Z,4.55
2019-02-26T19:22:18.566Z,4.50
2019-02-26T19:24:46.739Z,4.48
2019-02-26T19:27:16.874Z,4.41
2019-02-26T19:29:52.724Z,4.36
2019-02-26T19:32:21.296Z,4.30
2019-02-26T19:34:49.561Z,4.31
2019-02-26T19:37:19.120Z,4.31
2019-02-26T19:39:47.914Z,4.28
2019-02-26T19:42:17.544Z,4.25
2019-02-26T19:45:33.014Z,4.20
2019-02-26T19:48:09.846Z,4.20
2019-02-26T19:50:38.030Z,4.17
2019-02-26T19:53:06.730Z,4.11
2019-02-26T19:55:36.078Z,4.03
2019-02-26T19:58:06.803Z,3.95
2019-02-26T20:00:41.380Z,3.97
2019-02-26T20:03:09.384Z,3.88
2019-02-26T20:05:37.462Z,3.85
2019-02-26T20:08:06.098Z,3.73
2019-02-26T20:10:49.129Z,3.73
2019-02-26T20:13:23.036Z,3.71
2019-02-26T20:19:12.468Z,3.63
2019-02-26T20:21:41.231Z,3.49
2019-02-26T20:24:09.940Z,3.46
2019-02-26T20:26:37.979Z,3.36
2019-02-26T20:29:07.764Z,3.27
2019-02-26T20:31:44.177Z,3.18
2019-02-26T20:34:24.432Z,3.09
2019-02-26T20:37:12.136Z,3.03
2019-02-26T20:39:52.244Z,2.93
2019-02-26T20:45:30.090Z,2.92
2019-02-26T20:51:01.250Z,2.88
2019-02-26T20:53:30.614Z,2.84
2019-02-26T20:55:59.036Z,2.83
2019-02-26T20:58:27.624Z,2.70
2019-02-26T21:00:58.619Z,2.70
2019-02-26T21:03:33.194Z,2.78
2019-02-26T21:06:01.098Z,2.71
2019-02-26T21:08:30.965Z,2.71
2019-02-26T21:11:48.814Z,2.67
2019-02-26T21:14:38.674Z,2.79
2019-02-26T21:17:13.425Z,2.77
2019-02-26T21:20:01.100Z,2.72
2019-02-26T21:23:10.445Z,2.65
2019-02-26T21:25:58.577Z,2.57
2019-02-26T21:31:29.470Z,2.41
2019-02-26T21:34:17.326Z,2.26
2019-02-26T21:40:04.716Z,2.34
2019-02-26T21:42:53.006Z,2.22
2019-02-26T21:45:20.902Z,2.10
2019-02-26T21:48:08.819Z,1.99
2019-02-26T21:50:48.752Z,1.97
2019-02-26T21:53:17.259Z,1.90
2019-02-26T21:55:45.223Z,2.00
2019-02-26T21:58:56.961Z,2.06
2019-02-26T22:01:47.036Z,2.04
2019-02-26T22:04:16.533Z,2.00
2019-02-26T22:10:07.089Z,1.85
2019-02-26T22:13:02.981Z,1.82
2019-02-26T22:15:50.661Z,1.74
2019-02-26T22:18:38.251Z,1.60
2019-02-26T22:21:06.111Z,1.63
2019-02-26T22:23:34.322Z,1.50
2019-02-26T22:26:14.049Z,1.39
2019-02-26T22:28:42.672Z,1.32
2019-02-26T22:31:10.602Z,1.29
2019-02-26T22:33:40.723Z,1.20
2019-02-26T22:36:15.418Z,1.14
2019-02-26T22:39:14.845Z,1.23
2019-02-26T22:44:45.020Z,1.23
2019-02-26T22:47:13.655Z,1.16
2019-02-26T22:49:53.771Z,1.20
2019-02-26T22:52:30.658Z,1.21
2019-02-26T22:55:03.799Z,1.21
2019-02-26T22:57:32.378Z,1.13
2019-02-26T23:00:00.764Z,1.08
2019-02-26T23:05:30.535Z,1.09
2019-02-26T23:08:39.165Z,1.12
2019-02-26T23:14:27.345Z,1.13
2019-02-26T23:16:55.924Z,1.06
2019-02-26T23:19:23.801Z,1.02
2019-02-26T23:21:52.264Z,0.89
2019-02-26T23:24:20.873Z,0.82
2019-02-26T23:26:49.081Z,0.84
2019-02-26T23:29:17.651Z,0.71
2019-02-26T23:31:45.199Z,0.67
2019-02-26T23:34:13.397Z,0.54
2019-02-26T23:36:41.594Z,0.46
2019-02-26T23:42:11.540Z,0.36
2019-02-26T23:44:39.844Z,0.37
2019-02-26T23:47:07.750Z,0.38
2019-02-26T23:49:35.700Z,0.33
2019-02-26T23:52:03.895Z,0.29
2019-02-26T23:54:32.171Z,0.22
2019-02-26T23:57:00.784Z,0.23
2019-02-26T23:59:29.035Z,0.26
